sensor_id;sensor_type;location;lat;lon;timestamp;temperature;humidity
14008;DHT22;61651;45.508;12.232;2023-07-31T00:01:48;25.60;99.90
14008;DHT22;61651;45.508;12.232;2023-07-31T00:04:50;25.50;99.90
14008;DHT22;61651;45.508;12.232;2023-07-31T00:07:52;25.50;99.90
14008;DHT22;61651;45.508;12.232;2023-07-31T00:10:55;25.50;99.90
14008;DHT22;61651;45.508;12.232;2023-07-31T00:13:58;25.40;99.90
14008;DHT22;61651;45.508;12.232;2023-07-31T00:17:01;25.40;99.90
14008;DHT22;61651;45.508;12.232;2023-07-31T00:20:04;25.40;99.90
14008;DHT22;61651;45.508;12.232;2023-07-31T00:23:06;25.40;99.90
14008;DHT22;61651;45.508;12.232;2023-07-31T00:26:08;25.40;99.90
14008;DHT22;61651;45.508;12.232;2023-07-31T00:29:10;25.40;99.90
14008;DHT22;61651;45.508;12.232;2023-07-31T00:32:13;25.30;99.90
14008;DHT22;61651;45.508;12.232;2023-07-31T00:35:15;25.30;99.90
14008;DHT22;61651;45.508;12.232;2023-07-31T00:38:17;25.40;99.90
14008;DHT22;61651;45.508;12.232;2023-07-31T00:41:19;25.40;99.90
14008;DHT22;61651;45.508;12.232;2023-07-31T00:44:21;25.30;99.90
14008;DHT22;61651;45.508;12.232;2023-07-31T00:47:25;25.30;99.90
14008;DHT22;61651;45.508;12.232;2023-07-31T00:50:28;25.30;99.90
14008;DHT22;61651;45.508;12.232;2023-07-31T00:53:30;25.20;99.90
14008;DHT22;61651;45.508;12.232;2023-07-31T00:56:32;25.20;99.90
14008;DHT22;61651;45.508;12.232;2023-07-31T00:59:35;25.20;99.90
14008;DHT22;61651;45.508;12.232;2023-07-31T01:02:38;25.20;99.90
14008;DHT22;61651;45.508;12.232;2023-07-31T01:05:47;25.20;99.90
14008;DHT22;61651;45.508;12.232;2023-07-31T01:08:58;25.20;99.90
14008;DHT22;61651;45.508;12.232;2023-07-31T01:12:02;25.20;99.90
14008;DHT22;61651;45.508;12.232;2023-07-31T01:15:05;25.20;99.90
14008;DHT22;61651;45.508;12.232;2023-07-31T01:18:12;25.20;99.90
14008;DHT22;61651;45.508;12.232;2023-07-31T01:21:30;25.10;99.90
14008;DHT22;61651;45.508;12.232;2023-07-31T01:24:45;25.10;99.90
14008;DHT22;61651;45.508;12.232;2023-07-31T01:28:01;25.10;99.90
14008;DHT22;61651;45.508;12.232;2023-07-31T01:31:07;25.10;99.90
14008;DHT22;61651;45.508;12.232;2023-07-31T01:34:13;25.10;99.90
14008;DHT22;61651;45.508;12.232;2023-07-31T01:37:15;25.10;99.90
14008;DHT22;61651;45.508;12.232;2023-07-31T01:40:17;25.10;99.90
14008;DHT22;61651;45.508;12.232;2023-07-31T01:43:21;25.00;99.90
14008;DHT22;61651;45.508;12.232;2023-07-31T01:46:23;25.00;99.90
14008;DHT22;61651;45.508;12.232;2023-07-31T01:49:25;25.00;99.90
14008;DHT22;61651;45.508;12.232;2023-07-31T01:52:28;25.00;99.90
14008;DHT22;61651;45.508;12.232;2023-07-31T01:55:30;24.90;99.90
14008;DHT22;61651;45.508;12.232;2023-07-31T01:58:34;24.90;99.90
14008;DHT22;61651;45.508;12.232;2023-07-31T02:01:36;24.90;99.90
14008;DHT22;61651;45.508;12.232;2023-07-31T02:04:38;24.90;99.90
14008;DHT22;61651;45.508;12.232;2023-07-31T02:07:40;24.90;99.90
14008;DHT22;61651;45.508;12.232;2023-07-31T02:10:42;24.90;99.90
14008;DHT22;61651;45.508;12.232;2023-07-31T02:13:45;24.90;99.90
14008;DHT22;61651;45.508;12.232;2023-07-31T02:16:48;24.80;99.90
14008;DHT22;61651;45.508;12.232;2023-07-31T02:19:50;24.80;99.90
14008;DHT22;61651;45.508;12.232;2023-07-31T02:22:52;24.80;99.90
14008;DHT22;61651;45.508;12.232;2023-07-31T02:25:54;24.70;99.90
14008;DHT22;61651;45.508;12.232;2023-07-31T02:28:57;24.70;99.90
14008;DHT22;61651;45.508;12.232;2023-07-31T02:31:59;24.70;99.90
14008;DHT22;61651;45.508;12.232;2023-07-31T02:35:02;24.60;99.90
14008;DHT22;61651;45.508;12.232;2023-07-31T02:38:04;24.60;99.90
14008;DHT22;61651;45.508;12.232;2023-07-31T02:41:06;24.60;99.90
14008;DHT22;61651;45.508;12.232;2023-07-31T02:44:09;24.60;99.90
14008;DHT22;61651;45.508;12.232;2023-07-31T02:47:14;24.60;99.90
14008;DHT22;61651;45.508;12.232;2023-07-31T02:50:16;24.60;99.90
14008;DHT22;61651;45.508;12.232;2023-07-31T02:53:18;24.50;99.90
14008;DHT22;61651;45.508;12.232;2023-07-31T02:56:20;24.50;99.90
14008;DHT22;61651;45.508;12.232;2023-07-31T02:59:24;24.50;99.90
14008;DHT22;61651;45.508;12.232;2023-07-31T03:02:26;24.50;99.90
14008;DHT22;61651;45.508;12.232;2023-07-31T03:05:28;24.50;99.90
14008;DHT22;61651;45.508;12.232;2023-07-31T03:08:30;24.50;99.90
14008;DHT22;61651;45.508;12.232;2023-07-31T03:11:32;24.50;99.90
14008;DHT22;61651;45.508;12.232;2023-07-31T03:14:35;24.40;99.90
14008;DHT22;61651;45.508;12.232;2023-07-31T03:17:37;24.40;99.90
14008;DHT22;61651;45.508;12.232;2023-07-31T03:20:42;24.40;99.90
14008;DHT22;61651;45.508;12.232;2023-07-31T03:23:44;24.40;99.90
14008;DHT22;61651;45.508;12.232;2023-07-31T03:26:46;24.40;99.90
14008;DHT22;61651;45.508;12.232;2023-07-31T03:29:49;24.40;99.90
14008;DHT22;61651;45.508;12.232;2023-07-31T03:32:52;24.30;99.90
14008;DHT22;61651;45.508;12.232;2023-07-31T03:35:54;24.30;99.90
14008;DHT22;61651;45.508;12.232;2023-07-31T03:38:56;24.30;99.90
14008;DHT22;61651;45.508;12.232;2023-07-31T03:41:58;24.30;99.90
14008;DHT22;61651;45.508;12.232;2023-07-31T03:45:02;24.30;99.90
14008;DHT22;61651;45.508;12.232;2023-07-31T03:48:04;24.20;99.90
14008;DHT22;61651;45.508;12.232;2023-07-31T03:51:06;24.20;99.90
14008;DHT22;61651;45.508;12.232;2023-07-31T03:54:08;24.30;99.90
14008;DHT22;61651;45.508;12.232;2023-07-31T03:57:10;24.20;99.90
14008;DHT22;61651;45.508;12.232;2023-07-31T04:00:14;24.20;99.90
14008;DHT22;61651;45.508;12.232;2023-07-31T04:03:16;24.20;99.90
14008;DHT22;61651;45.508;12.232;2023-07-31T04:06:18;24.10;99.90
14008;DHT22;61651;45.508;12.232;2023-07-31T04:09:20;24.10;99.90
14008;DHT22;61651;45.508;12.232;2023-07-31T04:12:22;24.10;99.90
14008;DHT22;61651;45.508;12.232;2023-07-31T04:15:25;24.10;99.90
14008;DHT22;61651;45.508;12.232;2023-07-31T04:18:28;24.10;99.90
14008;DHT22;61651;45.508;12.232;2023-07-31T04:21:31;24.10;99.90
14008;DHT22;61651;45.508;12.232;2023-07-31T04:24:33;24.10;99.90
14008;DHT22;61651;45.508;12.232;2023-07-31T04:27:35;24.20;99.90
14008;DHT22;61651;45.508;12.232;2023-07-31T04:30:39;24.20;99.90
14008;DHT22;61651;45.508;12.232;2023-07-31T04:33:41;24.10;99.90
14008;DHT22;61651;45.508;12.232;2023-07-31T04:36:43;24.20;99.90
14008;DHT22;61651;45.508;12.232;2023-07-31T04:39:45;24.20;99.90
14008;DHT22;61651;45.508;12.232;2023-07-31T04:42:47;24.10;99.90
14008;DHT22;61651;45.508;12.232;2023-07-31T04:45:50;24.10;99.90
14008;DHT22;61651;45.508;12.232;2023-07-31T04:48:54;24.10;99.90
14008;DHT22;61651;45.508;12.232;2023-07-31T04:51:56;24.20;99.90
14008;DHT22;61651;45.508;12.232;2023-07-31T04:54:58;24.20;99.90
14008;DHT22;61651;45.508;12.232;2023-07-31T04:58:00;24.20;99.90
14008;DHT22;61651;45.508;12.232;2023-07-31T05:01:04;24.30;99.90
14008;DHT22;61651;45.508;12.232;2023-07-31T05:04:06;24.30;99.90
14008;DHT22;61651;45.508;12.232;2023-07-31T05:07:08;24.30;99.90
14008;DHT22;61651;45.508;12.232;2023-07-31T05:10:10;24.40;99.90
14008;DHT22;61651;45.508;12.232;2023-07-31T05:13:12;24.40;99.90
14008;DHT22;61651;45.508;12.232;2023-07-31T05:16:15;24.40;99.90
14008;DHT22;61651;45.508;12.232;2023-07-31T05:19:17;24.40;99.90
14008;DHT22;61651;45.508;12.232;2023-07-31T05:22:19;24.50;99.90
14008;DHT22;61651;45.508;12.232;2023-07-31T05:25:21;24.50;99.90
14008;DHT22;61651;45.508;12.232;2023-07-31T05:28:23;24.50;99.90
14008;DHT22;61651;45.508;12.232;2023-07-31T05:31:26;24.60;99.90
14008;DHT22;61651;45.508;12.232;2023-07-31T05:34:28;24.60;99.90
14008;DHT22;61651;45.508;12.232;2023-07-31T05:37:30;24.60;99.90
14008;DHT22;61651;45.508;12.232;2023-07-31T05:40:33;24.60;99.90
14008;DHT22;61651;45.508;12.232;2023-07-31T05:43:35;24.70;99.90
14008;DHT22;61651;45.508;12.232;2023-07-31T05:46:38;24.70;99.90
14008;DHT22;61651;45.508;12.232;2023-07-31T05:49:40;24.80;99.90
14008;DHT22;61651;45.508;12.232;2023-07-31T05:52:42;24.80;99.90
14008;DHT22;61651;45.508;12.232;2023-07-31T05:55:44;24.80;99.90
14008;DHT22;61651;45.508;12.232;2023-07-31T05:58:46;24.80;99.90
14008;DHT22;61651;45.508;12.232;2023-07-31T06:01:50;24.90;99.90
14008;DHT22;61651;45.508;12.232;2023-07-31T06:04:52;24.90;99.90
14008;DHT22;61651;45.508;12.232;2023-07-31T06:07:54;25.00;99.90
14008;DHT22;61651;45.508;12.232;2023-07-31T06:10:56;25.10;99.90
14008;DHT22;61651;45.508;12.232;2023-07-31T06:13:58;25.10;99.90
14008;DHT22;61651;45.508;12.232;2023-07-31T06:17:02;25.20;99.90
14008;DHT22;61651;45.508;12.232;2023-07-31T06:20:06;25.20;99.90
14008;DHT22;61651;45.508;12.232;2023-07-31T06:23:08;25.30;99.90
14008;DHT22;61651;45.508;12.232;2023-07-31T06:26:10;25.30;99.90
14008;DHT22;61651;45.508;12.232;2023-07-31T06:29:12;25.40;99.90
14008;DHT22;61651;45.508;12.232;2023-07-31T06:32:16;25.40;99.90
14008;DHT22;61651;45.508;12.232;2023-07-31T06:35:18;25.60;99.90
14008;DHT22;61651;45.508;12.232;2023-07-31T06:38:23;25.60;99.90
14008;DHT22;61651;45.508;12.232;2023-07-31T06:41:26;25.70;99.90
14008;DHT22;61651;45.508;12.232;2023-07-31T06:44:28;25.80;99.90
14008;DHT22;61651;45.508;12.232;2023-07-31T06:47:31;25.80;99.90
14008;DHT22;61651;45.508;12.232;2023-07-31T06:50:34;25.90;99.90
14008;DHT22;61651;45.508;12.232;2023-07-31T06:53:37;26.00;99.90
14008;DHT22;61651;45.508;12.232;2023-07-31T06:56:39;26.10;99.90
14008;DHT22;61651;45.508;12.232;2023-07-31T06:59:41;26.20;99.90
14008;DHT22;61651;45.508;12.232;2023-07-31T07:02:45;26.30;99.90
14008;DHT22;61651;45.508;12.232;2023-07-31T07:05:48;26.40;99.90
14008;DHT22;61651;45.508;12.232;2023-07-31T07:08:50;26.40;99.90
14008;DHT22;61651;45.508;12.232;2023-07-31T07:11:52;26.50;99.90
14008;DHT22;61651;45.508;12.232;2023-07-31T07:14:54;26.60;99.90
14008;DHT22;61651;45.508;12.232;2023-07-31T07:17:57;26.60;99.90
14008;DHT22;61651;45.508;12.232;2023-07-31T07:20:59;26.70;99.90
14008;DHT22;61651;45.508;12.232;2023-07-31T07:24:03;26.80;99.90
14008;DHT22;61651;45.508;12.232;2023-07-31T07:27:05;26.90;99.90
14008;DHT22;61651;45.508;12.232;2023-07-31T07:30:08;26.90;99.90
14008;DHT22;61651;45.508;12.232;2023-07-31T07:33:12;27.00;99.90
14008;DHT22;61651;45.508;12.232;2023-07-31T07:36:14;27.00;99.90
14008;DHT22;61651;45.508;12.232;2023-07-31T07:39:16;27.10;99.90
14008;DHT22;61651;45.508;12.232;2023-07-31T07:42:18;27.20;99.90
14008;DHT22;61651;45.508;12.232;2023-07-31T07:45:20;27.20;99.90
14008;DHT22;61651;45.508;12.232;2023-07-31T07:48:23;27.30;99.90
14008;DHT22;61651;45.508;12.232;2023-07-31T07:51:28;27.30;99.90
14008;DHT22;61651;45.508;12.232;2023-07-31T07:54:32;27.40;99.90
14008;DHT22;61651;45.508;12.232;2023-07-31T07:57:34;27.50;99.90
14008;DHT22;61651;45.508;12.232;2023-07-31T08:00:36;27.60;99.90
14008;DHT22;61651;45.508;12.232;2023-07-31T08:03:40;27.70;99.90
14008;DHT22;61651;45.508;12.232;2023-07-31T08:06:42;27.80;99.90
14008;DHT22;61651;45.508;12.232;2023-07-31T08:09:44;27.90;99.90
14008;DHT22;61651;45.508;12.232;2023-07-31T08:12:46;28.00;99.90
14008;DHT22;61651;45.508;12.232;2023-07-31T08:15:48;28.20;99.90
14008;DHT22;61651;45.508;12.232;2023-07-31T08:18:51;28.40;99.90
14008;DHT22;61651;45.508;12.232;2023-07-31T08:21:53;28.50;99.90
14008;DHT22;61651;45.508;12.232;2023-07-31T08:24:55;28.60;99.90
14008;DHT22;61651;45.508;12.232;2023-07-31T08:27:57;28.70;99.90
14008;DHT22;61651;45.508;12.232;2023-07-31T08:30:59;28.80;99.90
14008;DHT22;61651;45.508;12.232;2023-07-31T08:34:03;28.80;99.90
14008;DHT22;61651;45.508;12.232;2023-07-31T08:37:05;28.80;99.90
14008;DHT22;61651;45.508;12.232;2023-07-31T08:40:08;28.90;99.90
14008;DHT22;61651;45.508;12.232;2023-07-31T08:43:10;28.90;99.90
14008;DHT22;61651;45.508;12.232;2023-07-31T08:46:13;29.00;99.90
14008;DHT22;61651;45.508;12.232;2023-07-31T08:49:18;29.00;99.90
14008;DHT22;61651;45.508;12.232;2023-07-31T08:52:21;29.10;99.90
14008;DHT22;61651;45.508;12.232;2023-07-31T08:55:24;29.20;99.90
14008;DHT22;61651;45.508;12.232;2023-07-31T08:58:28;29.30;99.90
14008;DHT22;61651;45.508;12.232;2023-07-31T09:01:36;29.40;99.90
14008;DHT22;61651;45.508;12.232;2023-07-31T09:04:40;29.50;99.90
14008;DHT22;61651;45.508;12.232;2023-07-31T09:07:44;29.60;99.90
14008;DHT22;61651;45.508;12.232;2023-07-31T09:10:48;29.60;99.90
14008;DHT22;61651;45.508;12.232;2023-07-31T09:13:52;29.60;99.90
14008;DHT22;61651;45.508;12.232;2023-07-31T09:16:55;29.50;99.90
14008;DHT22;61651;45.508;12.232;2023-07-31T09:20:13;29.50;99.90
14008;DHT22;61651;45.508;12.232;2023-07-31T09:23:15;29.50;99.90
14008;DHT22;61651;45.508;12.232;2023-07-31T09:26:29;29.40;99.90
14008;DHT22;61651;45.508;12.232;2023-07-31T09:29:32;29.50;99.90
14008;DHT22;61651;45.508;12.232;2023-07-31T09:32:33;29.50;99.90
14008;DHT22;61651;45.508;12.232;2023-07-31T09:35:37;29.60;99.90
14008;DHT22;61651;45.508;12.232;2023-07-31T09:38:41;29.60;99.90
14008;DHT22;61651;45.508;12.232;2023-07-31T09:41:45;29.70;99.90
14008;DHT22;61651;45.508;12.232;2023-07-31T09:44:47;29.80;99.90
14008;DHT22;61651;45.508;12.232;2023-07-31T09:47:49;29.80;99.90
14008;DHT22;61651;45.508;12.232;2023-07-31T09:50:53;29.90;99.90
14008;DHT22;61651;45.508;12.232;2023-07-31T09:53:55;30.00;99.90
14008;DHT22;61651;45.508;12.232;2023-07-31T09:56:59;30.20;99.90
14008;DHT22;61651;45.508;12.232;2023-07-31T10:00:02;30.20;99.90
14008;DHT22;61651;45.508;12.232;2023-07-31T10:03:06;30.10;99.90
14008;DHT22;61651;45.508;12.232;2023-07-31T10:06:10;30.10;99.90
14008;DHT22;61651;45.508;12.232;2023-07-31T10:09:15;29.90;99.90
14008;DHT22;61651;45.508;12.232;2023-07-31T10:12:19;30.00;99.90
14008;DHT22;61651;45.508;12.232;2023-07-31T10:15:24;30.10;99.90
14008;DHT22;61651;45.508;12.232;2023-07-31T10:18:27;30.30;99.90
14008;DHT22;61651;45.508;12.232;2023-07-31T10:21:32;30.60;99.90
14008;DHT22;61651;45.508;12.232;2023-07-31T10:24:36;30.70;99.90
14008;DHT22;61651;45.508;12.232;2023-07-31T10:27:39;30.70;99.90
14008;DHT22;61651;45.508;12.232;2023-07-31T10:30:41;30.80;99.90
14008;DHT22;61651;45.508;12.232;2023-07-31T10:33:43;30.80;99.90
14008;DHT22;61651;45.508;12.232;2023-07-31T10:36:47;30.80;99.90
14008;DHT22;61651;45.508;12.232;2023-07-31T10:40:00;30.80;99.90
14008;DHT22;61651;45.508;12.232;2023-07-31T10:43:03;31.00;99.90
14008;DHT22;61651;45.508;12.232;2023-07-31T10:46:08;31.10;99.90
14008;DHT22;61651;45.508;12.232;2023-07-31T10:49:20;31.10;99.90
14008;DHT22;61651;45.508;12.232;2023-07-31T10:52:24;31.10;99.90
14008;DHT22;61651;45.508;12.232;2023-07-31T10:55:32;31.20;99.90
14008;DHT22;61651;45.508;12.232;2023-07-31T10:58:36;31.50;99.90
14008;DHT22;61651;45.508;12.232;2023-07-31T11:01:50;31.70;99.90
14008;DHT22;61651;45.508;12.232;2023-07-31T11:05:08;31.80;99.90
14008;DHT22;61651;45.508;12.232;2023-07-31T11:08:17;31.90;99.90
14008;DHT22;61651;45.508;12.232;2023-07-31T11:11:20;31.90;99.90
14008;DHT22;61651;45.508;12.232;2023-07-31T11:14:22;32.00;99.90
14008;DHT22;61651;45.508;12.232;2023-07-31T11:17:25;31.90;99.90
14008;DHT22;61651;45.508;12.232;2023-07-31T11:20:29;31.90;99.90
14008;DHT22;61651;45.508;12.232;2023-07-31T11:23:33;32.00;99.90
14008;DHT22;61651;45.508;12.232;2023-07-31T11:26:35;32.20;99.90
14008;DHT22;61651;45.508;12.232;2023-07-31T11:29:37;32.30;99.90
14008;DHT22;61651;45.508;12.232;2023-07-31T11:32:39;32.20;99.90
14008;DHT22;61651;45.508;12.232;2023-07-31T11:35:43;32.50;99.90
14008;DHT22;61651;45.508;12.232;2023-07-31T11:38:47;32.70;99.90
14008;DHT22;61651;45.508;12.232;2023-07-31T11:41:49;33.00;99.90
14008;DHT22;61651;45.508;12.232;2023-07-31T11:44:51;33.10;99.90
14008;DHT22;61651;45.508;12.232;2023-07-31T11:47:55;33.20;99.90
14008;DHT22;61651;45.508;12.232;2023-07-31T11:50:59;33.20;99.90
14008;DHT22;61651;45.508;12.232;2023-07-31T11:54:03;32.80;99.90
14008;DHT22;61651;45.508;12.232;2023-07-31T11:57:06;32.90;99.90
14008;DHT22;61651;45.508;12.232;2023-07-31T12:00:10;33.10;99.90
14008;DHT22;61651;45.508;12.232;2023-07-31T12:03:14;33.30;99.90
14008;DHT22;61651;45.508;12.232;2023-07-31T12:06:16;33.20;99.90
14008;DHT22;61651;45.508;12.232;2023-07-31T12:09:22;33.00;99.90
14008;DHT22;61651;45.508;12.232;2023-07-31T12:12:25;33.30;99.90
14008;DHT22;61651;45.508;12.232;2023-07-31T12:15:35;33.50;99.90
14008;DHT22;61651;45.508;12.232;2023-07-31T12:18:38;33.80;99.90
14008;DHT22;61651;45.508;12.232;2023-07-31T12:21:40;33.90;99.90
14008;DHT22;61651;45.508;12.232;2023-07-31T12:24:44;33.90;99.90
14008;DHT22;61651;45.508;12.232;2023-07-31T12:27:46;34.20;99.90
14008;DHT22;61651;45.508;12.232;2023-07-31T12:30:48;34.00;99.90
14008;DHT22;61651;45.508;12.232;2023-07-31T12:33:51;34.00;99.90
14008;DHT22;61651;45.508;12.232;2023-07-31T12:36:53;34.20;99.90
14008;DHT22;61651;45.508;12.232;2023-07-31T12:39:57;34.20;99.90
14008;DHT22;61651;45.508;12.232;2023-07-31T12:43:04;34.40;99.90
14008;DHT22;61651;45.508;12.232;2023-07-31T12:46:07;34.70;99.90
14008;DHT22;61651;45.508;12.232;2023-07-31T12:49:09;34.50;99.90
14008;DHT22;61651;45.508;12.232;2023-07-31T12:52:11;34.50;99.90
14008;DHT22;61651;45.508;12.232;2023-07-31T12:55:14;34.70;99.90
14008;DHT22;61651;45.508;12.232;2023-07-31T12:58:18;34.60;99.90
14008;DHT22;61651;45.508;12.232;2023-07-31T13:01:21;34.60;99.90
14008;DHT22;61651;45.508;12.232;2023-07-31T13:04:23;34.60;99.90
14008;DHT22;61651;45.508;12.232;2023-07-31T13:07:26;34.80;99.90
14008;DHT22;61651;45.508;12.232;2023-07-31T13:10:29;34.90;99.90
14008;DHT22;61651;45.508;12.232;2023-07-31T13:13:31;35.20;99.90
14008;DHT22;61651;45.508;12.232;2023-07-31T13:16:33;35.20;99.90
14008;DHT22;61651;45.508;12.232;2023-07-31T13:19:35;35.10;99.90
14008;DHT22;61651;45.508;12.232;2023-07-31T13:22:37;35.10;99.90
14008;DHT22;61651;45.508;12.232;2023-07-31T13:26:02;35.30;99.90
14008;DHT22;61651;45.508;12.232;2023-07-31T13:29:04;35.30;99.90
14008;DHT22;61651;45.508;12.232;2023-07-31T13:32:06;35.50;99.90
14008;DHT22;61651;45.508;12.232;2023-07-31T13:35:09;35.60;99.90
14008;DHT22;61651;45.508;12.232;2023-07-31T13:38:12;35.70;99.90
14008;DHT22;61651;45.508;12.232;2023-07-31T13:41:17;36.00;99.90
14008;DHT22;61651;45.508;12.232;2023-07-31T13:44:19;36.20;99.90
14008;DHT22;61651;45.508;12.232;2023-07-31T13:47:21;36.40;99.90
14008;DHT22;61651;45.508;12.232;2023-07-31T13:50:23;36.60;99.90
14008;DHT22;61651;45.508;12.232;2023-07-31T13:53:25;37.40;99.90
14008;DHT22;61651;45.508;12.232;2023-07-31T13:56:29;38.20;99.90
14008;DHT22;61651;45.508;12.232;2023-07-31T13:59:31;38.60;99.90
14008;DHT22;61651;45.508;12.232;2023-07-31T14:02:33;38.80;98.60
14008;DHT22;61651;45.508;12.232;2023-07-31T14:05:35;38.70;95.90
14008;DHT22;61651;45.508;12.232;2023-07-31T14:08:37;38.70;97.30
14008;DHT22;61651;45.508;12.232;2023-07-31T14:11:40;38.90;96.40
14008;DHT22;61651;45.508;12.232;2023-07-31T14:14:42;39.00;96.90
14008;DHT22;61651;45.508;12.232;2023-07-31T14:17:44;39.00;96.70
14008;DHT22;61651;45.508;12.232;2023-07-31T14:20:46;38.90;95.70
14008;DHT22;61651;45.508;12.232;2023-07-31T14:23:48;39.00;96.80
14008;DHT22;61651;45.508;12.232;2023-07-31T14:26:51;39.10;97.10
14008;DHT22;61651;45.508;12.232;2023-07-31T14:29:53;39.20;97.10
14008;DHT22;61651;45.508;12.232;2023-07-31T14:32:55;39.20;95.70
14008;DHT22;61651;45.508;12.232;2023-07-31T14:35:58;39.20;96.30
14008;DHT22;61651;45.508;12.232;2023-07-31T14:39:00;39.20;96.50
14008;DHT22;61651;45.508;12.232;2023-07-31T14:42:04;39.20;95.50
14008;DHT22;61651;45.508;12.232;2023-07-31T14:45:07;39.10;95.40
14008;DHT22;61651;45.508;12.232;2023-07-31T14:48:10;39.00;94.00
14008;DHT22;61651;45.508;12.232;2023-07-31T14:51:12;39.10;94.10
14008;DHT22;61651;45.508;12.232;2023-07-31T14:54:15;39.20;94.20
14008;DHT22;61651;45.508;12.232;2023-07-31T14:57:18;39.40;95.10
14008;DHT22;61651;45.508;12.232;2023-07-31T15:00:20;39.70;94.80
14008;DHT22;61651;45.508;12.232;2023-07-31T15:03:24;39.70;94.60
14008;DHT22;61651;45.508;12.232;2023-07-31T15:06:27;39.50;94.70
14008;DHT22;61651;45.508;12.232;2023-07-31T15:09:29;39.50;93.50
14008;DHT22;61651;45.508;12.232;2023-07-31T15:12:32;39.20;93.70
14008;DHT22;61651;45.508;12.232;2023-07-31T15:15:34;39.30;94.90
14008;DHT22;61651;45.508;12.232;2023-07-31T15:18:36;39.20;94.00
14008;DHT22;61651;45.508;12.232;2023-07-31T15:21:38;39.20;94.10
14008;DHT22;61651;45.508;12.232;2023-07-31T15:24:40;38.90;92.80
14008;DHT22;61651;45.508;12.232;2023-07-31T15:27:44;38.70;91.80
14008;DHT22;61651;45.508;12.232;2023-07-31T15:30:46;38.50;93.40
14008;DHT22;61651;45.508;12.232;2023-07-31T15:33:48;38.40;93.80
14008;DHT22;61651;45.508;12.232;2023-07-31T15:36:50;38.00;93.10
14008;DHT22;61651;45.508;12.232;2023-07-31T15:39:52;37.90;94.30
14008;DHT22;61651;45.508;12.232;2023-07-31T15:42:55;37.80;94.10
14008;DHT22;61651;45.508;12.232;2023-07-31T15:45:57;37.60;94.60
14008;DHT22;61651;45.508;12.232;2023-07-31T15:49:00;37.40;94.00
14008;DHT22;61651;45.508;12.232;2023-07-31T15:52:02;37.10;94.40
14008;DHT22;61651;45.508;12.232;2023-07-31T15:55:05;36.90;95.10
14008;DHT22;61651;45.508;12.232;2023-07-31T15:58:08;36.60;95.10
14008;DHT22;61651;45.508;12.232;2023-07-31T16:01:10;36.40;95.90
14008;DHT22;61651;45.508;12.232;2023-07-31T16:04:12;36.30;96.50
14008;DHT22;61651;45.508;12.232;2023-07-31T16:07:14;36.00;96.00
14008;DHT22;61651;45.508;12.232;2023-07-31T16:10:16;36.00;97.50
14008;DHT22;61651;45.508;12.232;2023-07-31T16:13:20;35.90;96.70
14008;DHT22;61651;45.508;12.232;2023-07-31T16:16:22;35.60;97.40
14008;DHT22;61651;45.508;12.232;2023-07-31T16:19:24;35.40;97.10
14008;DHT22;61651;45.508;12.232;2023-07-31T16:22:26;35.20;97.20
14008;DHT22;61651;45.508;12.232;2023-07-31T16:25:28;35.00;96.90
14008;DHT22;61651;45.508;12.232;2023-07-31T16:28:31;34.80;97.00
14008;DHT22;61651;45.508;12.232;2023-07-31T16:31:33;34.60;98.40
14008;DHT22;61651;45.508;12.232;2023-07-31T16:34:35;34.40;98.80
14008;DHT22;61651;45.508;12.232;2023-07-31T16:37:37;34.20;99.30
14008;DHT22;61651;45.508;12.232;2023-07-31T16:40:40;34.00;99.80
14008;DHT22;61651;45.508;12.232;2023-07-31T16:43:44;33.50;99.90
14008;DHT22;61651;45.508;12.232;2023-07-31T16:46:46;33.40;99.90
14008;DHT22;61651;45.508;12.232;2023-07-31T16:49:48;33.20;99.90
14008;DHT22;61651;45.508;12.232;2023-07-31T16:52:50;33.00;99.90
14008;DHT22;61651;45.508;12.232;2023-07-31T16:55:52;32.80;99.90
14008;DHT22;61651;45.508;12.232;2023-07-31T16:58:55;32.60;99.90
14008;DHT22;61651;45.508;12.232;2023-07-31T17:01:57;32.50;99.90
14008;DHT22;61651;45.508;12.232;2023-07-31T17:04:59;32.40;99.90
14008;DHT22;61651;45.508;12.232;2023-07-31T17:08:01;32.30;99.90
14008;DHT22;61651;45.508;12.232;2023-07-31T17:11:03;32.10;99.90
14008;DHT22;61651;45.508;12.232;2023-07-31T17:14:06;31.90;99.90
14008;DHT22;61651;45.508;12.232;2023-07-31T17:17:08;31.90;99.90
14008;DHT22;61651;45.508;12.232;2023-07-31T17:20:11;31.80;99.90
14008;DHT22;61651;45.508;12.232;2023-07-31T17:23:13;31.80;99.90
14008;DHT22;61651;45.508;12.232;2023-07-31T17:26:15;31.60;99.90
14008;DHT22;61651;45.508;12.232;2023-07-31T17:29:19;31.30;99.90
14008;DHT22;61651;45.508;12.232;2023-07-31T17:32:21;31.00;99.90
14008;DHT22;61651;45.508;12.232;2023-07-31T17:35:23;30.90;99.90
14008;DHT22;61651;45.508;12.232;2023-07-31T17:38:25;30.90;99.90
14008;DHT22;61651;45.508;12.232;2023-07-31T17:41:27;30.70;99.90
14008;DHT22;61651;45.508;12.232;2023-07-31T17:44:31;30.60;99.90
14008;DHT22;61651;45.508;12.232;2023-07-31T17:47:33;30.60;99.90
14008;DHT22;61651;45.508;12.232;2023-07-31T17:50:35;30.50;99.90
14008;DHT22;61651;45.508;12.232;2023-07-31T17:53:37;30.50;99.90
14008;DHT22;61651;45.508;12.232;2023-07-31T17:56:39;30.50;99.90
14008;DHT22;61651;45.508;12.232;2023-07-31T17:59:43;30.50;99.90
14008;DHT22;61651;45.508;12.232;2023-07-31T18:02:45;30.50;99.90
14008;DHT22;61651;45.508;12.232;2023-07-31T18:05:47;30.60;99.90
14008;DHT22;61651;45.508;12.232;2023-07-31T18:08:49;30.50;99.90
14008;DHT22;61651;45.508;12.232;2023-07-31T18:11:51;30.50;99.90
14008;DHT22;61651;45.508;12.232;2023-07-31T18:14:54;30.50;99.90
14008;DHT22;61651;45.508;12.232;2023-07-31T18:17:56;30.40;99.90
14008;DHT22;61651;45.508;12.232;2023-07-31T18:20:58;30.30;99.90
14008;DHT22;61651;45.508;12.232;2023-07-31T18:24:00;30.30;99.90
14008;DHT22;61651;45.508;12.232;2023-07-31T18:27:04;30.20;99.90
14008;DHT22;61651;45.508;12.232;2023-07-31T18:30:08;30.10;99.90
14008;DHT22;61651;45.508;12.232;2023-07-31T18:33:10;29.90;99.90
14008;DHT22;61651;45.508;12.232;2023-07-31T18:36:12;29.90;99.90
14008;DHT22;61651;45.508;12.232;2023-07-31T18:39:14;29.80;99.90
14008;DHT22;61651;45.508;12.232;2023-07-31T18:42:16;29.70;99.90
14008;DHT22;61651;45.508;12.232;2023-07-31T18:45:20;29.80;99.90
14008;DHT22;61651;45.508;12.232;2023-07-31T18:48:22;29.70;99.90
14008;DHT22;61651;45.508;12.232;2023-07-31T18:51:24;29.60;99.90
14008;DHT22;61651;45.508;12.232;2023-07-31T18:54:26;29.60;99.90
14008;DHT22;61651;45.508;12.232;2023-07-31T18:57:28;29.60;99.90